Time;durP1;ratioP1;P1;durP2;ratioP2;P2;SDS_P1;SDS_P2;PMS_P1;PMS_P2;Temp;Humidity;BMP_temperature;BMP_pressure;BME280_temperature;BME280_humidity;BME280_pressure;Samples;Min_cycle;Max_cycle;Signal;HPM_P1;HPM_P2
2021/10/20 00:01:23;;;;;;;;;5.00;5.00;;;;;20.34;51.90;101105.50;5057730;28;45375;-75
2021/10/20 00:03:48;;;;;;;;;7.50;7.50;;;;;20.35;52.12;101103.72;5056883;28;45377;-75
2021/10/20 00:06:14;;;;;;;;;11.00;10.00;;;;;20.36;52.85;101100.22;5057965;28;45360;-75
2021/10/20 00:08:40;;;;;;;;;9.00;9.00;;;;;20.29;52.39;101086.16;5058014;28;45558;-75
2021/10/20 00:11:06;;;;;;;;;8.50;7.50;;;;;20.31;53.02;101091.41;5058480;28;45692;-75
2021/10/20 00:13:32;;;;;;;;;6.25;6.25;;;;;20.27;52.40;101079.97;5057632;28;45347;-75
2021/10/20 00:15:58;;;;;;;;;8.50;7.00;;;;;20.20;52.67;101081.66;5057871;28;45424;-75
2021/10/20 00:18:23;;;;;;;;;8.00;8.00;;;;;20.20;53.37;101088.69;5039684;28;46047;-76
2021/10/20 00:20:51;;;;;;;;;10.25;8.00;;;;;20.25;53.08;101087.88;5057977;28;45339;-75
2021/10/20 00:23:17;;;;;;;;;8.50;8.00;;;;;20.18;52.99;101080.81;5039802;28;45366;-76
2021/10/20 00:25:43;;;;;;;;;7.75;7.00;;;;;20.10;53.62;101069.31;5058106;28;45574;-76
2021/10/20 00:28:09;;;;;;;;;8.00;8.00;;;;;20.15;53.66;101074.59;5057879;28;45379;-77
2021/10/20 00:30:35;;;;;;;;;11.00;8.50;;;;;20.18;53.62;101072.00;5058137;28;45387;-76
2021/10/20 00:33:01;;;;;;;;;8.50;8.50;;;;;20.14;53.75;101068.47;5058004;28;45445;-75
2021/10/20 00:35:27;;;;;;;;;10.25;7.00;;;;;20.10;53.78;101050.91;5057725;28;45319;-75
2021/10/20 00:37:53;;;;;;;;;9.25;7.50;;;;;20.17;53.88;101059.75;5057570;28;45481;-75
2021/10/20 00:40:20;;;;;;;;;9.50;9.25;;;;;20.15;53.76;101061.47;5057719;28;45784;-76
2021/10/20 00:42:46;;;;;;;;;11.00;8.50;;;;;20.17;54.16;101052.75;5047184;28;45372;-76
2021/10/20 00:45:12;;;;;;;;;10.50;7.50;;;;;20.18;53.77;101046.63;5057668;28;45466;-76
2021/10/20 00:47:39;;;;;;;;;12.50;10.00;;;;;20.20;53.77;101049.25;5057679;28;45355;-75
2021/10/20 00:50:08;;;;;;;;;8.50;8.25;;;;;20.12;54.20;101019.41;5057814;28;45388;-75
2021/10/20 00:52:34;;;;;;;;;10.00;9.00;;;;;20.22;53.70;101039.63;5056995;28;45384;-75
2021/10/20 00:55:00;;;;;;;;;8.25;7.50;;;;;20.22;54.18;101039.63;5056047;28;45318;-75
2021/10/20 00:57:28;;;;;;;;;7.50;6.25;;;;;20.23;54.35;101041.41;5057086;28;45507;-75
2021/10/20 00:59:56;;;;;;;;;8.25;8.25;;;;;20.10;54.20;101007.13;5057354;28;45414;-75
2021/10/20 01:02:22;;;;;;;;;9.25;8.00;;;;;20.17;54.38;101029.09;5057000;28;45399;-75
2021/10/20 01:04:49;;;;;;;;;8.00;7.75;;;;;20.13;54.12;101018.53;5057792;28;45359;-75
2021/10/20 01:07:16;;;;;;;;;10.25;8.75;;;;;20.11;54.54;101015.88;5056890;28;46182;-76
2021/10/20 01:09:42;;;;;;;;;7.25;7.25;;;;;20.13;54.63;101026.41;5057129;28;45260;-75
2021/10/20 01:12:08;;;;;;;;;9.25;8.50;;;;;20.10;54.86;101025.53;5057743;28;45592;-75
2021/10/20 01:14:34;;;;;;;;;7.75;7.75;;;;;20.10;54.51;101022.00;5057668;28;45357;-76
2021/10/20 01:17:00;;;;;;;;;6.75;6.50;;;;;20.11;54.64;101010.63;5056980;28;46224;-76
2021/10/20 01:19:27;;;;;;;;;9.75;9.75;;;;;20.09;55.17;101010.63;5056927;28;45316;-76
2021/10/20 01:21:53;;;;;;;;;7.75;7.75;;;;;20.02;54.64;101000.03;5057159;28;45465;-76
2021/10/20 01:24:20;;;;;;;;;8.75;7.25;;;;;20.02;55.28;101008.81;5057184;28;45581;-76
2021/10/20 01:26:56;;;;;;;;;9.00;8.00;;;;;20.01;54.81;100999.16;5037479;28;45546;-76
2021/10/20 01:29:24;;;;;;;;;7.00;7.00;;;;;20.06;54.86;100999.19;5056723;28;45698;-76
2021/10/20 01:31:52;;;;;;;;;7.75;7.75;;;;;20.01;55.33;100995.63;5056982;28;45332;-76
2021/10/20 01:34:19;;;;;;;;;9.00;9.00;;;;;19.96;55.01;100985.09;5057079;28;45574;-76
2021/10/20 01:36:45;;;;;;;;;10.00;9.00;;;;;19.93;55.11;100988.56;5056485;28;45513;-76
2021/10/20 01:39:10;;;;;;;;;10.50;9.00;;;;;19.98;55.53;101001.75;5056463;28;45682;-75
2021/10/20 01:41:37;;;;;;;;;11.25;9.25;;;;;19.91;55.57;100990.31;5056750;28;45352;-75
2021/10/20 01:44:04;;;;;;;;;11.25;9.50;;;;;19.96;55.22;100990.34;5056784;28;45594;-76
2021/10/20 01:46:30;;;;;;;;;13.50;12.00;;;;;19.96;55.38;100979.81;5056334;28;45418;-76
2021/10/20 01:48:56;;;;;;;;;8.50;8.50;;;;;19.91;55.51;100978.94;5056508;28;45810;-77
2021/10/20 01:51:22;;;;;;;;;12.25;10.50;;;;;19.88;55.47;100974.50;5056362;28;45406;-75
2021/10/20 01:53:48;;;;;;;;;13.00;11.00;;;;;19.84;56.10;100962.19;5056772;28;45534;-76
2021/10/20 01:56:14;;;;;;;;;9.50;9.50;;;;;19.83;55.93;100951.66;5056305;28;45409;-76
2021/10/20 01:58:41;;;;;;;;;15.50;11.25;;;;;19.76;56.53;100946.34;5056101;28;45751;-76
2021/10/20 02:01:07;;;;;;;;;14.00;12.00;;;;;19.78;56.45;100942.00;5057131;28;45354;-76
2021/10/20 02:03:35;;;;;;;;;16.25;14.00;;;;;19.76;56.53;100945.47;5056944;28;45304;-76
2021/10/20 02:06:02;;;;;;;;;19.75;15.75;;;;;19.73;56.31;100942.81;5056607;28;46186;-75
2021/10/20 02:08:27;;;;;;;;;56.00;42.25;;;;;19.74;56.62;100949.84;5055653;28;45366;-77
2021/10/20 02:10:53;;;;;;;;;72.00;55.25;;;;;19.74;56.64;100928.81;5056352;28;45294;-76
2021/10/20 02:13:19;;;;;;;;;61.00;47.75;;;;;19.72;56.73;100920.91;5056243;28;45601;-77
2021/10/20 02:15:44;;;;;;;;;91.00;82.50;;;;;19.65;56.37;100906.84;5056066;28;46041;-77
2021/10/20 02:18:10;;;;;;;;;109.25;95.00;;;;;19.70;56.41;100916.50;5055980;28;45279;-76
2021/10/20 02:20:36;;;;;;;;;53.75;43.00;;;;;19.70;57.11;100906.91;5056585;28;45324;-76
2021/10/20 02:23:01;;;;;;;;;29.50;27.50;;;;;19.63;56.70;100881.44;5056328;28;45648;-76
2021/10/20 02:25:27;;;;;;;;;20.75;18.25;;;;;19.63;57.22;100887.56;5055084;28;45431;-75
2021/10/20 02:27:53;;;;;;;;;14.75;12.75;;;;;19.60;57.33;100890.16;5055787;28;45711;-76
2021/10/20 02:30:18;;;;;;;;;15.50;10.50;;;;;19.57;57.20;100882.25;5055625;28;45434;-77
2021/10/20 02:32:44;;;;;;;;;12.00;11.50;;;;;19.65;57.05;100900.72;5038274;28;45367;-76
2021/10/20 02:35:11;;;;;;;;;21.50;13.75;;;;;19.61;57.55;100889.31;5055669;28;46404;-76
2021/10/20 02:37:37;;;;;;;;;26.00;20.25;;;;;19.61;57.70;100884.06;5056085;28;45529;-77
2021/10/20 02:40:05;;;;;;;;;18.50;16.00;;;;;19.60;57.61;100884.03;5055843;28;45371;-76
2021/10/20 02:42:31;;;;;;;;;19.75;17.25;;;;;19.60;57.32;100878.75;5055749;28;45579;-76
2021/10/20 02:44:57;;;;;;;;;12.00;12.00;;;;;19.58;57.36;100872.66;5037639;28;46893;-76
2021/10/20 02:47:22;;;;;;;;;10.00;9.25;;;;;19.58;57.92;100863.00;5037237;28;45402;-76
2021/10/20 02:49:48;;;;;;;;;13.00;10.50;;;;;19.51;57.33;100852.44;5055976;28;45571;-75
2021/10/20 02:52:14;;;;;;;;;13.25;12.50;;;;;19.56;57.53;100867.34;5037757;28;45375;-76
2021/10/20 02:54:40;;;;;;;;;13.00;11.25;;;;;19.57;57.74;100861.25;5037394;28;47712;-76
2021/10/20 02:57:06;;;;;;;;;12.50;10.75;;;;;19.58;57.30;100870.03;5055541;28;45492;-76
2021/10/20 02:59:32;;;;;;;;;10.75;9.00;;;;;19.58;57.18;100868.25;5055612;28;45318;-77
2021/10/20 03:01:57;;;;;;;;;11.25;11.00;;;;;19.56;57.20;100856.00;5056042;28;45248;-76
2021/10/20 03:04:23;;;;;;;;;11.75;11.00;;;;;19.55;58.01;100859.47;5055208;28;45333;-75
2021/10/20 03:06:48;;;;;;;;;11.00;10.25;;;;;19.48;57.80;100858.53;5055545;28;45778;-76
2021/10/20 03:09:14;;;;;;;;;10.50;8.00;;;;;19.54;57.67;100849.84;5037604;28;45260;-76
2021/10/20 03:11:40;;;;;;;;;9.00;9.00;;;;;19.60;57.63;100873.50;5055868;28;45307;-76
2021/10/20 03:14:05;;;;;;;;;13.25;11.75;;;;;19.61;57.37;100877.91;5037595;28;45956;-77
2021/10/20 03:16:31;;;;;;;;;12.25;9.50;;;;;19.53;57.86;100869.97;5055345;28;45383;-76
2021/10/20 03:18:56;;;;;;;;;10.00;10.00;;;;;19.49;57.43;100866.44;5055726;28;45328;-77
2021/10/20 03:21:22;;;;;;;;;9.75;9.75;;;;;19.57;57.80;100887.50;5037096;28;45608;-77
2021/10/20 03:23:48;;;;;;;;;12.25;10.00;;;;;19.52;57.45;100888.34;5055042;28;46081;-77
2021/10/20 03:26:14;;;;;;;;;14.00;11.50;;;;;19.53;57.56;100883.13;5054790;28;45482;-76
2021/10/20 03:28:40;;;;;;;;;12.25;10.50;;;;;19.53;57.82;100874.34;5055383;28;45478;-76
2021/10/20 03:31:05;;;;;;;;;11.75;11.25;;;;;19.47;57.50;100839.28;5037549;28;45563;-78
2021/10/20 03:33:31;;;;;;;;;10.75;9.50;;;;;19.49;58.02;100837.53;5054835;28;45623;-76
2021/10/20 03:35:57;;;;;;;;;13.25;12.00;;;;;19.43;58.21;100829.63;5055189;28;45331;-76
2021/10/20 03:38:22;;;;;;;;;12.00;9.75;;;;;19.38;58.60;100840.94;5036900;28;45354;-76
2021/10/20 03:40:48;;;;;;;;;11.25;11.25;;;;;19.29;58.36;100847.88;5055387;28;45304;-76
2021/10/20 03:43:14;;;;;;;;;11.25;10.00;;;;;19.33;58.83;100854.03;5054944;28;46241;-76
2021/10/20 03:45:39;;;;;;;;;12.25;10.00;;;;;19.32;58.35;100853.19;5054965;28;45392;-76
2021/10/20 03:48:05;;;;;;;;;10.00;10.00;;;;;19.25;58.55;100837.34;5055466;28;45320;-75
2021/10/20 03:50:31;;;;;;;;;10.00;10.00;;;;;19.25;58.67;100843.47;5056285;28;45229;-77
2021/10/20 03:52:56;;;;;;;;;10.75;10.75;;;;;19.30;58.49;100854.91;5058441;28;45382;-76
2021/10/20 03:55:22;;;;;;;;;12.00;8.50;;;;;19.32;58.53;100840.03;5058065;28;45365;-76
2021/10/20 03:57:48;;;;;;;;;12.75;9.75;;;;;19.30;58.81;100836.53;5058496;28;45292;-76
2021/10/20 04:00:16;;;;;;;;;13.75;9.50;;;;;19.36;58.33;100842.69;5058397;28;45631;-75
2021/10/20 04:02:44;;;;;;;;;13.00;10.00;;;;;19.39;58.25;100842.72;5058219;28;46029;-76
2021/10/20 04:05:11;;;;;;;;;10.75;10.25;;;;;19.34;58.14;100821.66;5057964;28;45364;-74
2021/10/20 04:07:39;;;;;;;;;9.00;9.00;;;;;19.36;58.60;100798.94;5058719;28;45221;-75
2021/10/20 04:10:07;;;;;;;;;10.25;8.75;;;;;19.33;58.77;100781.41;5058681;28;45355;-74
2021/10/20 04:12:33;;;;;;;;;11.50;11.50;;;;;19.36;58.29;100803.28;5057342;28;45357;-75
2021/10/20 04:14:58;;;;;;;;;13.75;13.50;;;;;19.34;58.28;100793.66;5058092;28;46019;-76
2021/10/20 04:17:24;;;;;;;;;22.50;18.50;;;;;19.36;58.12;100795.41;5058107;28;45813;-75
2021/10/20 04:19:49;;;;;;;;;17.00;16.50;;;;;19.34;58.83;100784.91;5058346;28;45309;-75
2021/10/20 04:22:15;;;;;;;;;22.25;20.00;;;;;19.36;58.38;100812.06;5057431;28;46061;-75
2021/10/20 04:24:40;;;;;;;;;15.00;14.50;;;;;19.34;58.32;100808.53;5058191;28;45301;-76
2021/10/20 04:27:06;;;;;;;;;13.50;13.50;;;;;19.33;58.49;100809.41;5058201;28;45298;-75
2021/10/20 04:29:32;;;;;;;;;10.50;9.25;;;;;19.33;58.62;100791.03;5057958;28;45561;-75
2021/10/20 04:31:57;;;;;;;;;12.00;11.75;;;;;19.28;58.67;100785.75;5057387;28;45285;-76
2021/10/20 04:34:23;;;;;;;;;8.25;8.25;;;;;19.34;58.41;100788.41;5057538;28;45429;-75
2021/10/20 04:36:48;;;;;;;;;12.50;11.00;;;;;19.41;58.63;100807.72;5057954;28;45612;-75
2021/10/20 04:39:14;;;;;;;;;11.50;11.25;;;;;19.40;58.44;100807.72;5056982;28;45514;-80
2021/10/20 04:41:40;;;;;;;;;11.75;11.75;;;;;19.38;58.33;100798.94;5038345;28;45429;-75
2021/10/20 04:44:05;;;;;;;;;10.75;10.75;;;;;19.37;58.37;100812.94;5057189;28;45376;-76
2021/10/20 04:46:31;;;;;;;;;10.00;10.00;;;;;19.37;58.65;100805.06;5056576;28;45550;-75
2021/10/20 04:48:56;;;;;;;;;12.25;10.00;;;;;19.32;57.95;100802.41;5057052;28;45522;-75
2021/10/20 04:51:22;;;;;;;;;10.75;10.75;;;;;19.33;58.50;100819.91;5056326;28;45821;-76
2021/10/20 04:53:48;;;;;;;;;9.50;8.50;;;;;19.32;58.37;100824.28;5056502;28;45446;-75
2021/10/20 04:56:13;;;;;;;;;11.50;9.25;;;;;19.23;58.57;100826.81;5056394;28;45395;-74
2021/10/20 04:58:39;;;;;;;;;10.50;8.75;;;;;19.17;58.83;100818.91;5056935;28;45377;-75
2021/10/20 05:01:04;;;;;;;;;12.00;9.50;;;;;19.15;58.48;100829.38;5035613;28;46417;-76
2021/10/20 05:03:30;;;;;;;;;10.00;9.75;;;;;19.15;58.78;100834.63;5056545;28;45439;-76
2021/10/20 05:05:55;;;;;;;;;12.75;11.75;;;;;19.14;58.54;100814.50;5035816;28;45434;-75
2021/10/20 05:08:21;;;;;;;;;11.50;11.50;;;;;19.12;59.29;100804.84;5036962;28;45458;-75
2021/10/20 05:10:47;;;;;;;;;10.00;9.00;;;;;19.05;58.94;100792.53;5036966;28;45914;-77
2021/10/20 05:13:13;;;;;;;;;12.50;11.00;;;;;19.05;59.00;100814.41;5055131;28;45272;-77
2021/10/20 05:15:38;;;;;;;;;14.25;13.25;;;;;19.04;59.04;100812.66;5057541;28;45871;-76
2021/10/20 05:18:04;;;;;;;;;11.00;11.00;;;;;19.02;59.22;100811.75;5057638;28;45379;-76
2021/10/20 05:20:30;;;;;;;;;13.25;11.00;;;;;18.97;59.11;100797.69;5056251;28;46153;-77
2021/10/20 05:22:55;;;;;;;;;10.50;9.00;;;;;18.84;59.73;100752.06;5038443;28;45525;-75
2021/10/20 05:25:21;;;;;;;;;11.75;11.75;;;;;18.97;60.08;100782.84;5056179;28;45339;-77
2021/10/20 05:27:47;;;;;;;;;11.50;11.50;;;;;18.95;59.64;100792.44;5057317;28;45344;-76
2021/10/20 05:30:14;;;;;;;;;12.25;11.00;;;;;18.91;59.69;100771.38;5055911;28;46178;-76
2021/10/20 05:32:39;;;;;;;;;15.75;12.00;;;;;18.86;59.70;100758.22;5056438;28;45447;-80
2021/10/20 05:35:06;;;;;;;;;11.25;10.25;;;;;18.76;59.94;100753.75;5057116;28;45351;-82
2021/10/20 05:37:31;;;;;;;;;7.50;7.50;;;;;18.86;60.02;100752.97;5057007;28;45351;-81
2021/10/20 05:39:57;;;;;;;;;13.00;13.00;;;;;18.85;60.03;100746.84;5058660;28;45339;-79
2021/10/20 05:42:22;;;;;;;;;13.50;12.25;;;;;18.86;60.03;100727.59;5055687;28;45537;-78
2021/10/20 05:44:48;;;;;;;;;15.25;12.00;;;;;18.84;60.68;100728.47;5056323;28;45489;-78
2021/10/20 05:47:14;;;;;;;;;12.00;11.00;;;;;18.82;60.59;100732.81;5055853;28;45367;-79
2021/10/20 05:49:40;;;;;;;;;12.50;11.75;;;;;18.80;60.35;100734.53;5056029;28;45331;-79
2021/10/20 05:52:07;;;;;;;;;12.75;10.25;;;;;18.74;60.19;100722.25;5056169;28;45517;-79
2021/10/20 05:54:32;;;;;;;;;12.00;10.25;;;;;18.81;60.38;100720.56;5056450;28;45330;-79
2021/10/20 05:56:58;;;;;;;;;13.50;12.00;;;;;18.82;60.81;100733.72;5056430;28;45328;-79
2021/10/20 05:59:24;;;;;;;;;11.25;11.25;;;;;18.86;60.69;100740.72;5056108;28;46165;-79
2021/10/20 06:01:52;;;;;;;;;9.75;9.75;;;;;18.91;60.46;100747.78;5056050;28;45363;-79
2021/10/20 06:04:19;;;;;;;;;12.50;11.25;;;;;18.94;60.56;100739.97;5056228;28;45328;-79
2021/10/20 06:06:45;;;;;;;;;9.25;8.00;;;;;18.96;60.24;100730.34;5056587;28;45309;-78
2021/10/20 06:09:11;;;;;;;;;12.50;10.50;;;;;18.91;60.27;100732.91;5055563;28;45446;-79
2021/10/20 06:11:37;;;;;;;;;14.00;11.50;;;;;18.93;60.55;100719.81;5055940;28;45952;-82
2021/10/20 06:14:03;;;;;;;;;10.75;10.50;;;;;18.93;60.81;100743.41;5056318;28;45418;-81
2021/10/20 06:16:31;;;;;;;;;9.00;7.50;;;;;18.90;60.67;100698.78;5057673;28;45364;-82
2021/10/20 06:18:57;;;;;;;;;12.25;9.75;;;;;18.88;60.10;100711.91;5057911;28;46611;-82
2021/10/20 06:21:22;;;;;;;;;12.25;11.50;;;;;18.95;60.26;100686.63;5057988;28;45442;-82
2021/10/20 06:23:48;;;;;;;;;13.00;10.75;;;;;18.98;60.48;100678.75;5059116;28;45166;-83
2021/10/20 06:26:14;;;;;;;;;13.50;13.50;;;;;18.91;60.88;100654.19;5056281;28;45312;-84
2021/10/20 06:28:39;;;;;;;;;11.00;11.00;;;;;19.01;60.94;100679.66;5055902;28;45474;-79
2021/10/20 06:31:05;;;;;;;;;11.50;11.25;;;;;19.02;61.25;100670.94;5056086;28;45371;-79
2021/10/20 06:33:30;;;;;;;;;13.50;13.00;;;;;19.02;61.20;100677.94;5055634;28;45289;-79
2021/10/20 06:35:56;;;;;;;;;13.50;11.75;;;;;19.04;61.53;100673.59;5056058;28;45447;-78
2021/10/20 06:38:22;;;;;;;;;11.75;10.75;;;;;18.94;61.80;100661.25;5055637;28;46000;-79
2021/10/20 06:40:48;;;;;;;;;16.50;12.75;;;;;19.00;61.75;100654.31;5057165;28;45430;-78
2021/10/20 06:43:14;;;;;;;;;11.50;11.00;;;;;19.05;62.79;100656.09;5056490;28;45426;-80
2021/10/20 06:45:41;;;;;;;;;13.50;10.75;;;;;18.96;62.73;100636.78;5056163;28;45597;-80
2021/10/20 06:48:07;;;;;;;;;12.75;12.75;;;;;18.88;62.54;100641.94;5055839;28;45401;-80
2021/10/20 06:50:33;;;;;;;;;14.50;13.50;;;;;18.89;63.18;100640.22;5055400;28;45306;-79
2021/10/20 06:52:59;;;;;;;;;13.00;11.25;;;;;18.70;64.02;100628.69;5055838;28;45292;-79
2021/10/20 06:55:25;;;;;;;;;14.50;13.25;;;;;18.76;63.46;100648.84;5055920;28;45569;-79
2021/10/20 06:57:50;;;;;;;;;15.00;11.25;;;;;18.70;63.60;100632.16;5055799;28;45422;-79
2021/10/20 07:00:16;;;;;;;;;15.25;12.75;;;;;18.72;64.07;100635.69;5037124;28;45316;-79
2021/10/20 07:02:41;;;;;;;;;11.25;11.25;;;;;18.72;64.00;100642.69;5055541;28;45335;-79
2021/10/20 07:05:08;;;;;;;;;15.50;11.25;;;;;18.71;63.88;100633.94;5055947;28;45502;-79
2021/10/20 07:07:33;;;;;;;;;11.25;11.25;;;;;18.64;64.52;100624.25;5055342;28;45985;-79
2021/10/20 07:09:59;;;;;;;;;15.75;13.25;;;;;18.61;64.57;100637.34;5055387;28;45260;-80
2021/10/20 07:12:27;;;;;;;;;10.75;10.75;;;;;18.59;64.61;100644.31;5055256;28;45352;-80
2021/10/20 07:14:53;;;;;;;;;11.00;11.00;;;;;18.56;64.66;100641.69;5055930;28;45370;-80
2021/10/20 07:17:18;;;;;;;;;14.00;14.00;;;;;18.54;64.53;100639.03;5057088;28;45265;-82
2021/10/20 07:19:44;;;;;;;;;12.75;12.75;;;;;18.60;65.13;100647.81;5055699;28;45280;-83
2021/10/20 07:22:10;;;;;;;;;12.50;12.00;;;;;18.60;64.69;100646.06;5055379;28;45346;-83
2021/10/20 07:24:35;;;;;;;;;14.00;12.00;;;;;18.60;64.66;100651.31;5056617;28;45307;-83
2021/10/20 07:27:01;;;;;;;;;11.75;11.25;;;;;18.55;64.51;100637.28;5062939;28;45966;-79
2021/10/20 07:29:27;;;;;;;;;11.75;11.75;;;;;18.63;64.64;100650.44;5058081;28;45827;-76
2021/10/20 07:31:53;;;;;;;;;16.75;15.25;;;;;18.59;64.71;100625.94;5058441;28;45289;-78
2021/10/20 07:34:19;;;;;;;;;11.50;11.50;;;;;18.60;64.52;100639.97;5058117;28;45636;-79
2021/10/20 07:36:44;;;;;;;;;16.00;13.75;;;;;18.64;64.49;100646.97;5058451;28;45438;-78
2021/10/20 07:39:12;;;;;;;;;15.00;14.00;;;;;18.65;64.95;100644.38;5057959;28;45315;-77
2021/10/20 07:41:38;;;;;;;;;14.75;13.50;;;;;18.63;64.64;100653.06;5058773;28;45333;-81
2021/10/20 07:44:05;;;;;;;;;12.50;11.50;;;;;18.59;64.83;100652.19;5058806;28;45424;-76
2021/10/20 07:46:31;;;;;;;;;14.75;13.25;;;;;18.63;64.95;100659.22;5057332;28;46170;-81
2021/10/20 07:48:56;;;;;;;;;11.50;11.50;;;;;18.63;64.97;100674.06;5057349;28;45349;-75
2021/10/20 07:51:22;;;;;;;;;14.25;14.25;;;;;18.69;64.96;100690.72;5057083;28;45516;-77
2021/10/20 07:53:47;;;;;;;;;14.75;13.50;;;;;18.71;65.19;100707.38;5058541;28;45549;-77
2021/10/20 07:56:13;;;;;;;;;16.25;12.00;;;;;18.67;65.06;100700.34;5057871;28;46060;-77
2021/10/20 07:58:39;;;;;;;;;16.75;12.25;;;;;18.55;65.52;100695.84;5058157;28;45380;-77
2021/10/20 08:01:04;;;;;;;;;15.75;11.50;;;;;18.58;65.58;100702.84;5058583;28;45208;-77
2021/10/20 08:03:30;;;;;;;;;13.75;12.75;;;;;18.62;65.36;100704.66;5058175;28;45196;-77
2021/10/20 08:05:55;;;;;;;;;13.75;10.00;;;;;18.60;65.42;100702.88;5057782;28;46005;-78
2021/10/20 08:08:21;;;;;;;;;14.50;13.50;;;;;18.57;65.73;100709.00;5057730;28;45315;-77
2021/10/20 08:10:47;;;;;;;;;13.25;12.75;;;;;18.50;65.97;100688.78;5058002;28;45292;-77
2021/10/20 08:13:13;;;;;;;;;12.50;11.75;;;;;18.54;66.06;100690.59;5057897;28;45442;-76
2021/10/20 08:15:39;;;;;;;;;13.75;11.75;;;;;18.54;65.97;100678.34;5057900;28;45405;-77
2021/10/20 08:18:05;;;;;;;;;14.25;13.50;;;;;18.54;65.98;100686.22;5058043;28;45361;-77
2021/10/20 08:20:34;;;;;;;;;13.00;11.00;;;;;18.59;65.98;100677.53;5057580;28;45356;-78
2021/10/20 08:23:02;;;;;;;;;19.00;17.25;;;;;18.61;66.04;100683.66;5058067;28;45308;-77
2021/10/20 08:25:28;;;;;;;;;13.50;12.25;;;;;18.64;65.87;100696.78;5057109;28;46048;-78
2021/10/20 08:27:54;;;;;;;;;13.00;12.75;;;;;18.60;66.08;100682.78;5057633;28;45706;-78
2021/10/20 08:30:20;;;;;;;;;14.50;14.50;;;;;18.67;66.16;100688.97;5057490;28;45387;-77
2021/10/20 08:32:49;;;;;;;;;12.00;11.50;;;;;18.62;66.25;100696.78;5058111;28;45522;-78
2021/10/20 08:35:18;;;;;;;;;16.75;13.75;;;;;18.62;66.43;100699.41;5039277;28;45560;-77
2021/10/20 08:37:45;;;;;;;;;18.50;14.00;;;;;18.64;66.61;100696.78;5056978;28;45762;-77
2021/10/20 08:40:12;;;;;;;;;16.75;13.00;;;;;18.64;66.17;100700.31;5057496;28;45457;-78
2021/10/20 08:42:42;;;;;;;;;13.25;13.25;;;;;18.66;66.65;100702.94;5058089;28;45346;-77
2021/10/20 08:45:08;;;;;;;;;14.50;13.00;;;;;18.61;66.81;100694.16;5057538;28;45233;-76
2021/10/20 08:47:36;;;;;;;;;17.25;15.00;;;;;18.59;66.57;100691.50;5057459;28;45785;-76
2021/10/20 08:50:07;;;;;;;;;12.75;12.50;;;;;18.62;66.95;100695.94;5057190;28;45323;-76
2021/10/20 08:52:33;;;;;;;;;10.25;10.25;;;;;18.62;67.04;100702.03;5057524;28;45218;-78
2021/10/20 08:55:00;;;;;;;;;13.75;13.00;;;;;18.65;66.29;100703.78;5057472;28;45443;-77
2021/10/20 08:57:26;;;;;;;;;15.00;15.00;;;;;18.68;66.63;100707.31;5058201;28;45728;-76
2021/10/20 08:59:51;;;;;;;;;18.75;15.00;;;;;18.71;66.63;100719.59;5059568;28;45301;-78
2021/10/20 09:02:21;;;;;;;;;18.75;12.75;;;;;18.71;66.86;100704.75;5057589;28;45656;-75
2021/10/20 09:04:52;;;;;;;;;19.25;15.75;;;;;18.71;67.17;100724.84;5057106;28;45478;-77
2021/10/20 09:07:17;;;;;;;;;14.50;11.75;;;;;18.65;66.96;100709.94;5056811;28;45826;-76
2021/10/20 09:09:43;;;;;;;;;18.25;16.00;;;;;18.69;67.10;100716.09;5057227;28;45314;-76
2021/10/20 09:12:08;;;;;;;;;17.50;14.00;;;;;18.69;67.38;100702.97;5039228;28;45555;-76
2021/10/20 09:14:34;;;;;;;;;21.00;15.00;;;;;18.72;66.82;100698.63;5057240;28;45292;-76
2021/10/20 09:17:04;;;;;;;;;16.75;14.50;;;;;18.70;67.06;100704.75;5056763;28;45679;-77
2021/10/20 09:19:34;;;;;;;;;20.25;15.00;;;;;18.76;66.76;100702.16;5055605;28;45464;-77
2021/10/20 09:22:03;;;;;;;;;13.50;13.50;;;;;18.74;66.84;100693.38;5039514;28;45289;-81
2021/10/20 09:24:35;;;;;;;;;18.25;15.75;;;;;18.76;67.16;100691.66;5055307;28;45304;-79
2021/10/20 09:27:03;;;;;;;;;19.00;16.50;;;;;18.88;67.19;100696.16;5037617;28;45745;-79
2021/10/20 09:29:32;;;;;;;;;12.50;11.50;;;;;18.81;66.88;100695.22;5056648;28;45365;-79
2021/10/20 09:31:59;;;;;;;;;14.00;12.50;;;;;18.85;67.24;100710.09;5057119;28;45476;-78
2021/10/20 09:34:34;;;;;;;;;17.25;12.75;;;;;18.81;67.18;100681.22;5055284;28;45480;-79
2021/10/20 09:37:03;;;;;;;;;16.75;14.75;;;;;18.90;67.52;100698.78;5057129;28;45583;-81
2021/10/20 09:39:29;;;;;;;;;15.00;13.25;;;;;18.88;67.57;100686.53;5069166;28;45268;-80
2021/10/20 09:42:05;;;;;;;;;13.50;12.00;;;;;18.93;67.12;100690.94;5059482;28;45514;-79
2021/10/20 09:44:50;;;;;;;;;19.75;16.25;;;;;18.92;66.91;100699.69;5054040;28;45433;-81
2021/10/20 09:47:17;;;;;;;;;15.25;13.75;;;;;18.87;67.15;100692.63;5056609;28;45335;-77
2021/10/20 09:49:48;;;;;;;;;20.00;16.50;;;;;18.90;67.02;100680.41;5055835;28;45494;-77
2021/10/20 09:52:13;;;;;;;;;14.50;12.00;;;;;18.97;67.36;100674.38;5056600;28;45406;-75
2021/10/20 09:54:41;;;;;;;;;15.75;14.25;;;;;18.99;67.25;100681.41;5056461;28;46371;-80
2021/10/20 09:57:07;;;;;;;;;16.50;15.50;;;;;19.05;66.70;100674.44;5054623;28;45323;-80
2021/10/20 09:59:33;;;;;;;;;18.25;16.50;;;;;19.01;66.66;100658.66;5057016;28;45371;-78
2021/10/20 10:02:00;;;;;;;;;14.50;11.25;;;;;19.10;66.55;100657.88;5058515;28;45308;-77
2021/10/20 10:04:26;;;;;;;;;14.25;14.00;;;;;19.30;66.07;100681.66;5062548;28;45260;-77
2021/10/20 10:06:52;;;;;;;;;13.75;12.75;;;;;19.34;65.50;100666.78;5059222;28;45237;-78
2021/10/20 10:09:18;;;;;;;;;14.00;14.00;;;;;19.42;65.97;100667.69;5058076;28;45262;-82
2021/10/20 10:11:53;;;;;;;;;16.50;14.00;;;;;19.46;65.62;100658.09;5057139;28;45634;-80
2021/10/20 10:14:24;;;;;;;;;13.25;12.25;;;;;19.47;65.04;100657.22;5055973;28;46393;-79
2021/10/20 10:16:58;;;;;;;;;13.25;13.25;;;;;19.55;64.78;100670.41;5069677;28;45186;-80
2021/10/20 10:19:25;;;;;;;;;15.25;12.50;;;;;19.56;64.98;100666.91;5059839;28;45535;-79
2021/10/20 10:21:52;;;;;;;;;14.25;11.75;;;;;19.54;64.32;100652.88;5054698;28;45475;-79
2021/10/20 10:24:19;;;;;;;;;12.75;11.75;;;;;19.56;64.69;100651.16;5054466;28;45551;-79
2021/10/20 10:26:58;;;;;;;;;24.00;17.50;;;;;19.52;64.51;100647.63;5054345;28;45275;-79
2021/10/20 10:29:24;;;;;;;;;26.00;20.50;;;;;19.55;64.51;100650.25;5053831;28;46136;-79
2021/10/20 10:31:51;;;;;;;;;39.75;34.00;;;;;19.58;65.10;100654.66;5053756;28;45356;-79
2021/10/20 10:34:26;;;;;;;;;19.50;19.00;;;;;19.52;64.95;100649.38;5055311;28;45348;-82
2021/10/20 10:36:53;;;;;;;;;24.00;22.75;;;;;19.56;65.08;100645.91;5057548;28;45865;-83
2021/10/20 10:39:20;;;;;;;;;30.50;21.50;;;;;19.57;65.19;100642.41;5053000;28;45442;-80
2021/10/20 10:41:48;;;;;;;;;15.00;14.00;;;;;19.57;64.59;100635.41;5057380;28;45273;-84
2021/10/20 10:44:22;;;;;;;;;15.00;12.50;;;;;19.56;65.05;100628.38;5050454;28;45546;-74
2021/10/20 10:47:17;;;;;;;;;14.25;14.00;;;;;19.66;64.65;100621.44;5035824;28;45375;-78
2021/10/20 10:49:46;;;;;;;;;12.25;12.25;;;;;19.72;64.45;100616.19;5035966;28;45486;-78
2021/10/20 10:52:42;;;;;;;;;10.00;9.50;;;;;19.85;64.63;100604.00;5040269;28;45459;-82
2021/10/20 10:55:18;;;;;;;;;248.50;208.00;;;;;19.91;64.51;100624.19;5035455;28;45753;-76
2021/10/20 10:57:56;;;;;;;;;12.75;12.75;;;;;19.85;63.90;100605.72;5055118;28;45434;-79
2021/10/20 11:00:22;;;;;;;;;11.25;10.75;;;;;19.97;64.71;100624.19;5057497;28;45411;-82
2021/10/20 11:02:55;;;;;;;;;13.00;12.00;;;;;20.02;63.96;100608.44;5059838;28;45320;-77
2021/10/20 11:05:30;;;;;;;;;15.25;10.00;;;;;20.17;63.62;100620.75;5061456;28;45478;-79
2021/10/20 11:08:10;;;;;;;;;11.25;9.75;;;;;20.08;63.88;100593.56;5058866;28;45482;-78
2021/10/20 11:10:37;;;;;;;;;46.50;36.50;;;;;20.24;64.04;100610.25;5061094;28;45529;-77